CYXH

Medicine Hat Airport

Medicine Hat, Alberta, Canada
METAR CYXH 250000Z 20017G24KT 30SM BKN300 21/M08 A3010 RMK CI7 SLP203 DENSITY ALT 3400FT
Observed Flight Rules
Apr-25 @ 00:00 UTC (41 minutes ago) Visual Flight Rules
Wind Visibility Clouds
200° at 17 knots
 Gusting to 24 knots
30 miles
  • Broken at 30,000' AGL
Temperatures Readings
Current 21°C / 70°F
Dewpoint -8°C / 18°F
Humidity 13%
Altimeter 30.1" Hg
Pressure 1020.3 hPa
Elevation 716
METAR CYXH 250000Z 20017G24KT 30SM BKN300 21/M08 A3010 RMK CI7 SLP203 DENSITY ALT 3400FT
Observed Flight Rules
Apr-25 @ 00:00 UTC
(41 minutes ago)
VFR
Wind Visibility
200° at 17 knots
 Gusting to 24 knots
30 miles
Clouds
  • Broken at 30,000' AGL
Temperature Dewpoint
21°C / 70°F -8°C / 18°F
Humidity Altimeter Pressure
13% 30.1" Hg 1020.3 hPa